Oakfield, Wisconsin
Current Conditions -  °F | °C
As of 7:53 PM on Friday 21 Nov 2014 (Local Time) from KFLD Reporting Station
Clear Clear  
Wind Chill: 15°   Ceiling: Unl
Heat Index: 28°   Visibility: 10mi
Dew Point:   Wind: 20mph
Humidity: 45%   Direction: 190°S
Pressure: 30.14"   Gusts: 26mph
Location:  43.69°N, 88.55°W
Report Text: KFLD 220153Z AUTO 19017G23KT 10SM CLR M02/M13 A3014 RMK AO2 SLP220 T10221128
Loading
Personal Weather Stations






























Interactive Weather Map New forecast layout! Learn more

10-Day Weather Forecast

Advertisements
Track Severe Weather on mobile